sensor_id;sensor_type;location;lat;lon;timestamp;pressure;altitude;pressure_sealevel;temperature;humidity
47738;BME280;33502;47.182;27.506;2023-06-05T00:02:11;100720.78;;;15.03;68.30
47738;BME280;33502;47.182;27.506;2023-06-05T00:04:37;100721.19;;;14.96;69.09
47738;BME280;33502;47.182;27.506;2023-06-05T00:07:05;100712.00;;;14.85;69.95
47738;BME280;33502;47.182;27.506;2023-06-05T00:09:31;100709.81;;;14.76;68.68
47738;BME280;33502;47.182;27.506;2023-06-05T00:11:56;100710.09;;;14.72;70.43
47738;BME280;33502;47.182;27.506;2023-06-05T00:14:22;100714.88;;;14.65;69.88
47738;BME280;33502;47.182;27.506;2023-06-05T00:16:47;100712.63;;;14.57;70.33
47738;BME280;33502;47.182;27.506;2023-06-05T00:19:15;100704.13;;;14.49;69.87
47738;BME280;33502;47.182;27.506;2023-06-05T00:21:41;100707.91;;;14.45;72.32
47738;BME280;33502;47.182;27.506;2023-06-05T00:24:06;100711.84;;;14.38;72.12
47738;BME280;33502;47.182;27.506;2023-06-05T00:26:32;100707.94;;;14.27;73.59
47738;BME280;33502;47.182;27.506;2023-06-05T00:28:58;100704.72;;;14.21;73.73
47738;BME280;33502;47.182;27.506;2023-06-05T00:31:23;100705.13;;;14.13;74.30
47738;BME280;33502;47.182;27.506;2023-06-05T00:33:49;100709.13;;;14.04;75.25
47738;BME280;33502;47.182;27.506;2023-06-05T00:36:17;100703.50;;;13.93;76.55
47738;BME280;33502;47.182;27.506;2023-06-05T00:38:44;100696.97;;;13.81;76.26
47738;BME280;33502;47.182;27.506;2023-06-05T00:41:10;100702.06;;;13.68;78.51
47738;BME280;33502;47.182;27.506;2023-06-05T00:43:36;100695.63;;;13.55;78.52
47738;BME280;33502;47.182;27.506;2023-06-05T00:46:03;100697.22;;;13.40;79.52
47738;BME280;33502;47.182;27.506;2023-06-05T00:48:29;100702.13;;;13.30;79.56
47738;BME280;33502;47.182;27.506;2023-06-05T00:50:57;100698.13;;;13.20;80.90
47738;BME280;33502;47.182;27.506;2023-06-05T00:53:23;100696.66;;;13.15;80.15
47738;BME280;33502;47.182;27.506;2023-06-05T00:55:48;100695.84;;;13.12;80.52
47738;BME280;33502;47.182;27.506;2023-06-05T00:58:14;100701.09;;;13.14;79.75
47738;BME280;33502;47.182;27.506;2023-06-05T01:00:40;100704.47;;;13.18;79.31
47738;BME280;33502;47.182;27.506;2023-06-05T01:03:06;100705.25;;;13.20;79.48
47738;BME280;33502;47.182;27.506;2023-06-05T01:05:34;100701.66;;;13.21;78.69
47738;BME280;33502;47.182;27.506;2023-06-05T01:08:02;100695.63;;;13.17;78.81
47738;BME280;33502;47.182;27.506;2023-06-05T01:10:29;100697.63;;;13.12;79.57
47738;BME280;33502;47.182;27.506;2023-06-05T01:15:24;100684.94;;;13.00;80.14
47738;BME280;33502;47.182;27.506;2023-06-05T01:17:57;100684.06;;;12.99;80.73
47738;BME280;33502;47.182;27.506;2023-06-05T01:22:59;100686.88;;;12.96;81.24
47738;BME280;33502;47.182;27.506;2023-06-05T01:25:24;100688.59;;;12.97;80.95
47738;BME280;33502;47.182;27.506;2023-06-05T01:28:00;100696.44;;;13.00;80.36
47738;BME280;33502;47.182;27.506;2023-06-05T01:30:30;100689.19;;;13.04;80.46
47738;BME280;33502;47.182;27.506;2023-06-05T01:35:40;100683.06;;;13.02;80.52
47738;BME280;33502;47.182;27.506;2023-06-05T01:38:06;100691.84;;;13.04;80.40
47738;BME280;33502;47.182;27.506;2023-06-05T01:40:35;100691.97;;;13.01;81.27
47738;BME280;33502;47.182;27.506;2023-06-05T01:43:01;100697.34;;;12.99;80.85
47738;BME280;33502;47.182;27.506;2023-06-05T01:45:28;100699.38;;;12.94;82.28
47738;BME280;33502;47.182;27.506;2023-06-05T01:47:53;100703.38;;;12.84;83.32
47738;BME280;33502;47.182;27.506;2023-06-05T01:50:22;100706.38;;;12.76;84.57
47738;BME280;33502;47.182;27.506;2023-06-05T01:52:47;100712.22;;;12.65;87.18
47738;BME280;33502;47.182;27.506;2023-06-05T01:55:15;100722.22;;;12.59;87.19
47738;BME280;33502;47.182;27.506;2023-06-05T01:57:42;100717.88;;;12.58;87.70
47738;BME280;33502;47.182;27.506;2023-06-05T02:00:08;100719.56;;;12.59;87.77
47738;BME280;33502;47.182;27.506;2023-06-05T02:02:47;100718.72;;;12.58;88.06
47738;BME280;33502;47.182;27.506;2023-06-05T02:05:14;100723.91;;;12.61;87.97
47738;BME280;33502;47.182;27.506;2023-06-05T02:07:40;100712.34;;;12.62;87.79
47738;BME280;33502;47.182;27.506;2023-06-05T02:10:07;100722.03;;;12.63;88.04
47738;BME280;33502;47.182;27.506;2023-06-05T02:12:34;100731.09;;;12.59;90.65
47738;BME280;33502;47.182;27.506;2023-06-05T02:15:02;100731.09;;;12.59;91.01
47738;BME280;33502;47.182;27.506;2023-06-05T02:17:28;100725.78;;;12.59;88.86
47738;BME280;33502;47.182;27.506;2023-06-05T02:19:54;100744.44;;;12.58;89.43
47738;BME280;33502;47.182;27.506;2023-06-05T02:22:20;100746.47;;;12.51;88.82
47738;BME280;33502;47.182;27.506;2023-06-05T02:24:45;100744.16;;;12.43;91.31
47738;BME280;33502;47.182;27.506;2023-06-05T02:27:12;100742.78;;;12.34;90.91
47738;BME280;33502;47.182;27.506;2023-06-05T02:29:38;100739.56;;;12.26;91.99
47738;BME280;33502;47.182;27.506;2023-06-05T02:32:04;100752.22;;;12.21;92.22
47738;BME280;33502;47.182;27.506;2023-06-05T02:34:30;100750.53;;;12.19;91.77
47738;BME280;33502;47.182;27.506;2023-06-05T02:36:56;100744.31;;;12.20;91.72
47738;BME280;33502;47.182;27.506;2023-06-05T02:39:21;100746.00;;;12.21;93.69
47738;BME280;33502;47.182;27.506;2023-06-05T02:41:47;100746.81;;;12.23;92.26
47738;BME280;33502;47.182;27.506;2023-06-05T02:44:12;100750.41;;;12.22;93.47
47738;BME280;33502;47.182;27.506;2023-06-05T02:46:38;100749.47;;;12.23;94.95
47738;BME280;33502;47.182;27.506;2023-06-05T02:49:04;100750.06;;;12.29;93.19
47738;BME280;33502;47.182;27.506;2023-06-05T02:51:30;100749.97;;;12.32;93.24
47738;BME280;33502;47.182;27.506;2023-06-05T02:53:56;100744.44;;;12.37;93.52
47738;BME280;33502;47.182;27.506;2023-06-05T02:56:22;100740.44;;;12.47;91.93
47738;BME280;33502;47.182;27.506;2023-06-05T02:58:53;100749.69;;;12.59;90.93
47738;BME280;33502;47.182;27.506;2023-06-05T03:01:19;100746.34;;;12.75;90.51
47738;BME280;33502;47.182;27.506;2023-06-05T03:03:46;100740.59;;;12.84;90.08
47738;BME280;33502;47.182;27.506;2023-06-05T03:06:15;100736.66;;;12.92;89.97
47738;BME280;33502;47.182;27.506;2023-06-05T03:08:45;100729.41;;;12.96;89.82
47738;BME280;33502;47.182;27.506;2023-06-05T03:11:15;100739.56;;;13.07;89.73
47738;BME280;33502;47.182;27.506;2023-06-05T03:13:41;100734.31;;;13.24;87.81
47738;BME280;33502;47.182;27.506;2023-06-05T03:16:06;100730.00;;;13.41;87.25
47738;BME280;33502;47.182;27.506;2023-06-05T03:18:35;100731.91;;;13.56;85.72
47738;BME280;33502;47.182;27.506;2023-06-05T03:21:02;100726.94;;;13.67;84.93
47738;BME280;33502;47.182;27.506;2023-06-05T03:23:28;100730.16;;;13.74;84.89
47738;BME280;33502;47.182;27.506;2023-06-05T03:25:56;100726.47;;;13.77;85.00
47738;BME280;33502;47.182;27.506;2023-06-05T03:28:23;100729.06;;;13.78;85.33
47738;BME280;33502;47.182;27.506;2023-06-05T03:30:50;100731.56;;;13.81;85.54
47738;BME280;33502;47.182;27.506;2023-06-05T03:33:18;100733.94;;;13.87;86.13
47738;BME280;33502;47.182;27.506;2023-06-05T03:35:44;100736.16;;;13.97;85.28
47738;BME280;33502;47.182;27.506;2023-06-05T03:38:14;100738.25;;;14.07;85.25
47738;BME280;33502;47.182;27.506;2023-06-05T03:40:40;100736.69;;;14.21;84.69
47738;BME280;33502;47.182;27.506;2023-06-05T03:43:09;100739.50;;;14.35;83.80
47738;BME280;33502;47.182;27.506;2023-06-05T03:45:36;100738.53;;;14.54;84.02
47738;BME280;33502;47.182;27.506;2023-06-05T03:48:03;100734.00;;;14.73;80.37
47738;BME280;33502;47.182;27.506;2023-06-05T03:50:32;100739.97;;;14.94;80.32
47738;BME280;33502;47.182;27.506;2023-06-05T03:53:04;100747.81;;;15.13;80.66
47738;BME280;33502;47.182;27.506;2023-06-05T03:55:34;100749.81;;;15.25;78.77
47738;BME280;33502;47.182;27.506;2023-06-05T03:58:19;100742.84;;;15.39;78.57
47738;BME280;33502;47.182;27.506;2023-06-05T04:00:48;100751.81;;;15.54;78.83
47738;BME280;33502;47.182;27.506;2023-06-05T04:03:14;100741.81;;;15.57;78.07
47738;BME280;33502;47.182;27.506;2023-06-05T04:05:40;100751.84;;;15.68;78.48
47738;BME280;33502;47.182;27.506;2023-06-05T04:08:07;100757.13;;;15.85;78.31
47738;BME280;33502;47.182;27.506;2023-06-05T04:10:33;100753.75;;;15.98;76.53
47738;BME280;33502;47.182;27.506;2023-06-05T04:12:59;100764.75;;;16.08;76.44
47738;BME280;33502;47.182;27.506;2023-06-05T04:15:25;100765.28;;;16.29;75.16
47738;BME280;33502;47.182;27.506;2023-06-05T04:17:51;100768.56;;;16.48;74.63
47738;BME280;33502;47.182;27.506;2023-06-05T04:20:17;100769.63;;;16.60;74.92
47738;BME280;33502;47.182;27.506;2023-06-05T04:22:44;100776.44;;;16.66;73.44
47738;BME280;33502;47.182;27.506;2023-06-05T04:25:11;100783.78;;;16.62;74.51
47738;BME280;33502;47.182;27.506;2023-06-05T04:27:38;100777.75;;;16.58;74.66
47738;BME280;33502;47.182;27.506;2023-06-05T04:30:05;100784.34;;;16.53;74.37
47738;BME280;33502;47.182;27.506;2023-06-05T04:32:31;100790.56;;;16.53;76.45
47738;BME280;33502;47.182;27.506;2023-06-05T04:35:00;100795.53;;;16.59;75.51
47738;BME280;33502;47.182;27.506;2023-06-05T04:37:26;100788.19;;;16.77;76.59
47738;BME280;33502;47.182;27.506;2023-06-05T04:39:52;100789.06;;;16.78;76.11
47738;BME280;33502;47.182;27.506;2023-06-05T04:42:18;100785.66;;;17.19;74.30
47738;BME280;33502;47.182;27.506;2023-06-05T04:44:47;100790.00;;;17.49;73.60
47738;BME280;33502;47.182;27.506;2023-06-05T04:47:18;100795.69;;;17.86;72.15
47738;BME280;33502;47.182;27.506;2023-06-05T04:49:44;100796.06;;;18.07;69.45
47738;BME280;33502;47.182;27.506;2023-06-05T04:52:13;100789.91;;;18.19;68.27
47738;BME280;33502;47.182;27.506;2023-06-05T04:54:40;100796.81;;;18.09;69.65
47738;BME280;33502;47.182;27.506;2023-06-05T04:57:06;100793.44;;;18.19;69.15
47738;BME280;33502;47.182;27.506;2023-06-05T04:59:31;100794.75;;;18.39;70.22
47738;BME280;33502;47.182;27.506;2023-06-05T05:01:58;100797.09;;;18.84;68.77
47738;BME280;33502;47.182;27.506;2023-06-05T05:04:24;100792.06;;;19.55;63.38
47738;BME280;33502;47.182;27.506;2023-06-05T05:06:51;100795.28;;;20.68;58.97
47738;BME280;33502;47.182;27.506;2023-06-05T05:09:19;100793.00;;;21.54;55.17
47738;BME280;33502;47.182;27.506;2023-06-05T05:11:46;100795.88;;;22.28;53.59
47738;BME280;33502;47.182;27.506;2023-06-05T05:14:11;100797.22;;;22.55;52.43
47738;BME280;33502;47.182;27.506;2023-06-05T05:16:37;100798.09;;;23.07;50.38
47738;BME280;33502;47.182;27.506;2023-06-05T05:19:04;100802.22;;;23.42;48.56
47738;BME280;33502;47.182;27.506;2023-06-05T05:21:31;100799.25;;;23.45;49.14
47738;BME280;33502;47.182;27.506;2023-06-05T05:23:57;100801.16;;;23.64;47.67
47738;BME280;33502;47.182;27.506;2023-06-05T05:26:22;100809.19;;;23.95;46.87
47738;BME280;33502;47.182;27.506;2023-06-05T05:28:48;100800.50;;;24.40;46.41
47738;BME280;33502;47.182;27.506;2023-06-05T05:31:14;100809.13;;;24.92;44.90
47738;BME280;33502;47.182;27.506;2023-06-05T05:33:39;100800.66;;;24.58;45.79
47738;BME280;33502;47.182;27.506;2023-06-05T05:36:05;100804.94;;;24.02;46.75
47738;BME280;33502;47.182;27.506;2023-06-05T05:38:31;100805.66;;;23.94;47.04
47738;BME280;33502;47.182;27.506;2023-06-05T05:40:57;100810.47;;;24.39;45.72
47738;BME280;33502;47.182;27.506;2023-06-05T05:43:22;100807.31;;;25.30;44.04
47738;BME280;33502;47.182;27.506;2023-06-05T05:45:48;100808.81;;;26.16;43.03
47738;BME280;33502;47.182;27.506;2023-06-05T05:48:14;100816.31;;;26.84;40.84
47738;BME280;33502;47.182;27.506;2023-06-05T05:50:39;100815.94;;;27.05;40.06
47738;BME280;33502;47.182;27.506;2023-06-05T05:53:05;100822.16;;;26.89;39.39
47738;BME280;33502;47.182;27.506;2023-06-05T05:55:31;100815.06;;;26.97;39.67
47738;BME280;33502;47.182;27.506;2023-06-05T05:57:56;100807.59;;;26.72;40.32
47738;BME280;33502;47.182;27.506;2023-06-05T06:00:22;100817.13;;;27.03;39.94
47738;BME280;33502;47.182;27.506;2023-06-05T06:02:48;100813.75;;;27.27;38.48
47738;BME280;33502;47.182;27.506;2023-06-05T06:05:13;100810.31;;;26.99;38.09
47738;BME280;33502;47.182;27.506;2023-06-05T06:07:39;100811.88;;;26.57;39.70
47738;BME280;33502;47.182;27.506;2023-06-05T06:10:07;100814.56;;;25.95;39.10
47738;BME280;33502;47.182;27.506;2023-06-05T06:12:33;100816.09;;;26.33;39.58
47738;BME280;33502;47.182;27.506;2023-06-05T06:14:59;100821.81;;;26.30;39.09
47738;BME280;33502;47.182;27.506;2023-06-05T06:17:25;100810.56;;;26.61;38.97
47738;BME280;33502;47.182;27.506;2023-06-05T06:19:51;100809.66;;;27.05;38.55
47738;BME280;33502;47.182;27.506;2023-06-05T06:22:18;100811.44;;;27.48;37.15
47738;BME280;33502;47.182;27.506;2023-06-05T06:24:43;100817.16;;;27.11;36.61
47738;BME280;33502;47.182;27.506;2023-06-05T06:27:09;100813.34;;;27.22;35.55
47738;BME280;33502;47.182;27.506;2023-06-05T06:29:57;100820.91;;;26.84;35.12
47738;BME280;33502;47.182;27.506;2023-06-05T06:32:22;100816.97;;;27.73;35.90
47738;BME280;33502;47.182;27.506;2023-06-05T06:34:48;100818.59;;;28.08;34.47
47738;BME280;33502;47.182;27.506;2023-06-05T06:37:15;100814.28;;;27.12;33.05
47738;BME280;33502;47.182;27.506;2023-06-05T06:39:43;100816.91;;;26.52;34.07
47738;BME280;33502;47.182;27.506;2023-06-05T06:42:09;100819.13;;;26.48;34.44
47738;BME280;33502;47.182;27.506;2023-06-05T06:44:36;100820.28;;;26.90;34.44
47738;BME280;33502;47.182;27.506;2023-06-05T06:47:02;100814.56;;;27.78;33.82
47738;BME280;33502;47.182;27.506;2023-06-05T06:49:28;100822.81;;;27.95;32.74
47738;BME280;33502;47.182;27.506;2023-06-05T06:51:53;100816.75;;;28.17;32.97
47738;BME280;33502;47.182;27.506;2023-06-05T06:54:19;100820.81;;;28.13;32.15
47738;BME280;33502;47.182;27.506;2023-06-05T06:56:45;100819.53;;;27.83;32.48
47738;BME280;33502;47.182;27.506;2023-06-05T06:59:11;100811.09;;;27.17;32.79
47738;BME280;33502;47.182;27.506;2023-06-05T07:01:41;100816.22;;;26.94;33.43
47738;BME280;33502;47.182;27.506;2023-06-05T07:04:07;100815.38;;;26.93;34.33
47738;BME280;33502;47.182;27.506;2023-06-05T07:06:33;100817.06;;;27.55;34.32
47738;BME280;33502;47.182;27.506;2023-06-05T07:08:58;100808.88;;;27.21;34.31
47738;BME280;33502;47.182;27.506;2023-06-05T07:11:24;100822.31;;;27.99;33.55
47738;BME280;33502;47.182;27.506;2023-06-05T07:13:51;100813.03;;;27.59;33.70
47738;BME280;33502;47.182;27.506;2023-06-05T07:16:16;100807.06;;;28.15;33.59
47738;BME280;33502;47.182;27.506;2023-06-05T07:18:42;100812.66;;;28.29;32.01
47738;BME280;33502;47.182;27.506;2023-06-05T07:21:08;100822.16;;;28.01;31.41
47738;BME280;33502;47.182;27.506;2023-06-05T07:23:33;100813.13;;;28.00;32.60
47738;BME280;33502;47.182;27.506;2023-06-05T07:25:59;100818.19;;;27.87;32.06
47738;BME280;33502;47.182;27.506;2023-06-05T07:28:24;100807.91;;;28.56;32.03
47738;BME280;33502;47.182;27.506;2023-06-05T07:30:50;100819.47;;;28.83;31.55
47738;BME280;33502;47.182;27.506;2023-06-05T07:33:16;100809.44;;;28.75;31.88
47738;BME280;33502;47.182;27.506;2023-06-05T07:35:42;100811.47;;;28.73;31.55
47738;BME280;33502;47.182;27.506;2023-06-05T07:38:08;100821.03;;;28.53;32.06
47738;BME280;33502;47.182;27.506;2023-06-05T07:40:34;100810.75;;;28.96;31.23
47738;BME280;33502;47.182;27.506;2023-06-05T07:42:59;100813.63;;;29.11;30.50
47738;BME280;33502;47.182;27.506;2023-06-05T07:45:25;100816.97;;;29.29;31.51
47738;BME280;33502;47.182;27.506;2023-06-05T07:47:51;100807.22;;;28.70;31.86
47738;BME280;33502;47.182;27.506;2023-06-05T07:50:16;100820.69;;;28.72;32.27
47738;BME280;33502;47.182;27.506;2023-06-05T07:52:42;100819.06;;;29.02;32.60
47738;BME280;33502;47.182;27.506;2023-06-05T07:55:08;100822.75;;;30.05;30.33
47738;BME280;33502;47.182;27.506;2023-06-05T07:57:33;100828.53;;;29.79;30.38
47738;BME280;33502;47.182;27.506;2023-06-05T07:59:59;100827.78;;;29.62;30.55
47738;BME280;33502;47.182;27.506;2023-06-05T08:02:25;100834.28;;;29.53;30.92
47738;BME280;33502;47.182;27.506;2023-06-05T08:04:51;100824.91;;;29.86;30.31
47738;BME280;33502;47.182;27.506;2023-06-05T08:07:16;100827.97;;;29.52;30.16
47738;BME280;33502;47.182;27.506;2023-06-05T08:09:42;100829.63;;;30.01;29.56
47738;BME280;33502;47.182;27.506;2023-06-05T08:12:07;100835.91;;;29.31;30.20
47738;BME280;33502;47.182;27.506;2023-06-05T08:14:33;100830.31;;;29.16;30.62
47738;BME280;33502;47.182;27.506;2023-06-05T08:16:59;100828.47;;;29.00;30.38
47738;BME280;33502;47.182;27.506;2023-06-05T08:19:25;100823.06;;;29.47;29.58
47738;BME280;33502;47.182;27.506;2023-06-05T08:21:51;100823.91;;;29.88;29.80
47738;BME280;33502;47.182;27.506;2023-06-05T08:24:17;100823.50;;;30.22;28.71
47738;BME280;33502;47.182;27.506;2023-06-05T08:26:43;100823.81;;;29.73;28.84
47738;BME280;33502;47.182;27.506;2023-06-05T08:29:08;100819.97;;;29.51;28.75
47738;BME280;33502;47.182;27.506;2023-06-05T08:31:34;100825.91;;;29.06;29.33
47738;BME280;33502;47.182;27.506;2023-06-05T08:34:02;100829.31;;;29.17;28.10
47738;BME280;33502;47.182;27.506;2023-06-05T08:36:27;100827.97;;;28.14;28.79
47738;BME280;33502;47.182;27.506;2023-06-05T08:38:53;100825.13;;;28.57;28.73
47738;BME280;33502;47.182;27.506;2023-06-05T08:41:19;100814.00;;;28.83;28.88
47738;BME280;33502;47.182;27.506;2023-06-05T08:43:46;100817.41;;;28.93;28.88
47738;BME280;33502;47.182;27.506;2023-06-05T08:46:13;100813.19;;;28.74;28.75
47738;BME280;33502;47.182;27.506;2023-06-05T08:48:41;100817.78;;;28.49;28.48
47738;BME280;33502;47.182;27.506;2023-06-05T08:51:07;100817.34;;;27.86;29.87
47738;BME280;33502;47.182;27.506;2023-06-05T08:53:35;100814.50;;;27.96;30.13
47738;BME280;33502;47.182;27.506;2023-06-05T08:56:01;100822.72;;;28.45;28.67
47738;BME280;33502;47.182;27.506;2023-06-05T08:58:27;100819.97;;;28.29;28.74
47738;BME280;33502;47.182;27.506;2023-06-05T09:00:52;100811.63;;;27.98;29.51
47738;BME280;33502;47.182;27.506;2023-06-05T09:03:19;100805.56;;;28.53;28.41
47738;BME280;33502;47.182;27.506;2023-06-05T09:05:48;100812.84;;;28.69;28.73
47738;BME280;33502;47.182;27.506;2023-06-05T09:08:14;100814.19;;;28.73;29.06
47738;BME280;33502;47.182;27.506;2023-06-05T09:10:41;100825.31;;;28.55;28.88
47738;BME280;33502;47.182;27.506;2023-06-05T09:13:06;100813.50;;;28.79;28.72
47738;BME280;33502;47.182;27.506;2023-06-05T09:15:33;100818.81;;;28.73;28.98
47738;BME280;33502;47.182;27.506;2023-06-05T09:18:09;100822.13;;;29.16;29.09
47738;BME280;33502;47.182;27.506;2023-06-05T09:20:36;100816.00;;;29.05;28.57
47738;BME280;33502;47.182;27.506;2023-06-05T09:23:03;100814.72;;;28.52;28.62
47738;BME280;33502;47.182;27.506;2023-06-05T09:25:43;100809.06;;;28.12;29.53
47738;BME280;33502;47.182;27.506;2023-06-05T09:28:10;100810.31;;;27.67;29.50
47738;BME280;33502;47.182;27.506;2023-06-05T09:30:52;100804.63;;;27.95;30.12
47738;BME280;33502;47.182;27.506;2023-06-05T09:33:18;100799.38;;;27.94;29.33
47738;BME280;33502;47.182;27.506;2023-06-05T09:35:44;100801.59;;;28.15;29.48
47738;BME280;33502;47.182;27.506;2023-06-05T09:38:25;100800.72;;;28.47;29.71
47738;BME280;33502;47.182;27.506;2023-06-05T09:40:52;100796.66;;;28.67;29.69
47738;BME280;33502;47.182;27.506;2023-06-05T09:43:20;100796.84;;;28.17;29.68
47738;BME280;33502;47.182;27.506;2023-06-05T09:45:48;100779.03;;;27.80;30.91
47738;BME280;33502;47.182;27.506;2023-06-05T09:48:13;100791.81;;;27.79;30.86
47738;BME280;33502;47.182;27.506;2023-06-05T09:50:40;100790.53;;;28.08;30.28
47738;BME280;33502;47.182;27.506;2023-06-05T09:53:07;100782.59;;;27.64;30.80
47738;BME280;33502;47.182;27.506;2023-06-05T09:55:34;100783.47;;;27.30;31.39
47738;BME280;33502;47.182;27.506;2023-06-05T09:58:00;100781.16;;;27.43;31.22
47738;BME280;33502;47.182;27.506;2023-06-05T10:00:35;100780.81;;;27.89;30.90
47738;BME280;33502;47.182;27.506;2023-06-05T10:03:03;100780.59;;;27.82;30.85
47738;BME280;33502;47.182;27.506;2023-06-05T10:05:32;100781.16;;;27.43;29.76
47738;BME280;33502;47.182;27.506;2023-06-05T10:07:58;100781.91;;;27.19;30.15
47738;BME280;33502;47.182;27.506;2023-06-05T10:10:23;100773.44;;;27.30;29.56
47738;BME280;33502;47.182;27.506;2023-06-05T10:12:49;100770.00;;;27.63;30.21
47738;BME280;33502;47.182;27.506;2023-06-05T10:15:15;100773.34;;;27.40;29.32
47738;BME280;33502;47.182;27.506;2023-06-05T10:17:41;100765.22;;;27.65;31.13
47738;BME280;33502;47.182;27.506;2023-06-05T10:20:07;100762.66;;;27.47;30.13
47738;BME280;33502;47.182;27.506;2023-06-05T10:22:33;100761.97;;;27.45;29.74
47738;BME280;33502;47.182;27.506;2023-06-05T10:25:00;100768.63;;;27.16;28.82
47738;BME280;33502;47.182;27.506;2023-06-05T10:39:58;100749.00;;;27.89;30.05
47738;BME280;33502;47.182;27.506;2023-06-05T10:42:27;100750.84;;;27.81;30.06
47738;BME280;33502;47.182;27.506;2023-06-05T10:44:54;100744.06;;;27.34;30.28
47738;BME280;33502;47.182;27.506;2023-06-05T10:50:31;100756.66;;;27.35;30.37
47738;BME280;33502;47.182;27.506;2023-06-05T10:52:51;100751.25;;;27.51;30.18
47738;BME280;33502;47.182;27.506;2023-06-05T10:55:17;100735.72;;;27.86;30.27
47738;BME280;33502;47.182;27.506;2023-06-05T11:00:27;100735.28;;;27.48;29.53
47738;BME280;33502;47.182;27.506;2023-06-05T11:02:53;100729.88;;;27.57;30.07
47738;BME280;33502;47.182;27.506;2023-06-05T11:05:19;100739.69;;;27.41;30.25
47738;BME280;33502;47.182;27.506;2023-06-05T11:07:45;100726.47;;;27.63;30.56
47738;BME280;33502;47.182;27.506;2023-06-05T11:10:18;100732.59;;;27.57;30.34
47738;BME280;33502;47.182;27.506;2023-06-05T11:15:15;100723.66;;;27.97;30.56
47738;BME280;33502;47.182;27.506;2023-06-05T11:17:41;100721.78;;;28.14;30.07
47738;BME280;33502;47.182;27.506;2023-06-05T11:27:58;100730.91;;;27.72;30.07
47738;BME280;33502;47.182;27.506;2023-06-05T11:30:30;100724.44;;;27.65;30.03
47738;BME280;33502;47.182;27.506;2023-06-05T11:33:09;100716.34;;;27.98;30.13
47738;BME280;33502;47.182;27.506;2023-06-05T11:35:37;100715.47;;;28.38;29.51
47738;BME280;33502;47.182;27.506;2023-06-05T11:38:09;100713.44;;;27.91;30.03
47738;BME280;33502;47.182;27.506;2023-06-05T11:40:35;100720.06;;;27.80;29.91
47738;BME280;33502;47.182;27.506;2023-06-05T11:43:02;100724.84;;;27.95;30.33
47738;BME280;33502;47.182;27.506;2023-06-05T11:45:28;100709.81;;;27.74;30.56
47738;BME280;33502;47.182;27.506;2023-06-05T11:48:03;100711.72;;;28.39;30.51
47738;BME280;33502;47.182;27.506;2023-06-05T11:50:28;100705.47;;;28.06;30.20
47738;BME280;33502;47.182;27.506;2023-06-05T11:53:03;100718.41;;;28.04;30.41
47738;BME280;33502;47.182;27.506;2023-06-05T11:55:29;100717.94;;;27.41;31.19
47738;BME280;33502;47.182;27.506;2023-06-05T11:58:08;100713.94;;;27.86;31.10
47738;BME280;33502;47.182;27.506;2023-06-05T12:00:34;100721.94;;;28.37;30.31
47738;BME280;33502;47.182;27.506;2023-06-05T12:03:00;100709.66;;;28.41;30.35
47738;BME280;33502;47.182;27.506;2023-06-05T12:05:25;100710.22;;;28.04;30.16
47738;BME280;33502;47.182;27.506;2023-06-05T12:07:51;100705.06;;;27.68;30.10
47738;BME280;33502;47.182;27.506;2023-06-05T12:10:16;100726.56;;;28.12;30.88
47738;BME280;33502;47.182;27.506;2023-06-05T12:12:52;100720.06;;;27.80;30.62
47738;BME280;33502;47.182;27.506;2023-06-05T12:15:19;100710.38;;;28.35;31.09
47738;BME280;33502;47.182;27.506;2023-06-05T12:17:49;100710.72;;;27.99;30.28
47738;BME280;33502;47.182;27.506;2023-06-05T12:20:15;100706.44;;;27.64;31.26
47738;BME280;33502;47.182;27.506;2023-06-05T12:22:41;100700.31;;;27.78;31.04
47738;BME280;33502;47.182;27.506;2023-06-05T12:25:19;100699.81;;;27.83;31.50
47738;BME280;33502;47.182;27.506;2023-06-05T12:27:44;100700.09;;;27.55;31.29
47738;BME280;33502;47.182;27.506;2023-06-05T12:30:11;100701.59;;;27.25;31.18
47738;BME280;33502;47.182;27.506;2023-06-05T12:32:36;100702.03;;;27.20;32.29
47738;BME280;33502;47.182;27.506;2023-06-05T12:35:04;100699.56;;;27.35;31.51
47738;BME280;33502;47.182;27.506;2023-06-05T12:37:31;100701.66;;;27.58;31.43
47738;BME280;33502;47.182;27.506;2023-06-05T12:39:59;100701.50;;;27.84;31.39
47738;BME280;33502;47.182;27.506;2023-06-05T12:42:25;100707.34;;;28.05;31.02
47738;BME280;33502;47.182;27.506;2023-06-05T12:44:51;100698.31;;;28.05;31.14
47738;BME280;33502;47.182;27.506;2023-06-05T12:47:17;100696.19;;;27.41;31.04
47738;BME280;33502;47.182;27.506;2023-06-05T12:49:42;100703.16;;;27.09;31.84
47738;BME280;33502;47.182;27.506;2023-06-05T12:52:08;100703.00;;;27.11;31.65
47738;BME280;33502;47.182;27.506;2023-06-05T12:54:35;100690.97;;;27.13;31.45
47738;BME280;33502;47.182;27.506;2023-06-05T12:57:01;100683.69;;;26.71;31.51
47738;BME280;33502;47.182;27.506;2023-06-05T12:59:27;100691.13;;;26.69;31.70
47738;BME280;33502;47.182;27.506;2023-06-05T13:01:53;100693.50;;;26.72;31.28
47738;BME280;33502;47.182;27.506;2023-06-05T13:04:18;100695.75;;;27.11;31.77
47738;BME280;33502;47.182;27.506;2023-06-05T13:06:44;100685.19;;;27.59;30.93
47738;BME280;33502;47.182;27.506;2023-06-05T13:09:10;100694.50;;;27.40;30.66
47738;BME280;33502;47.182;27.506;2023-06-05T13:11:35;100693.47;;;27.49;31.39
47738;BME280;33502;47.182;27.506;2023-06-05T13:14:01;100686.66;;;27.29;31.61
47738;BME280;33502;47.182;27.506;2023-06-05T13:16:27;100686.34;;;27.48;31.31